sensor_id;sensor_type;location;lat;lon;timestamp;temperature;humidity
2957;DHT22;1488;51.548;7.222;2023-06-22T00:00:46;25.40;87.60
2957;DHT22;1488;51.548;7.222;2023-06-22T00:03:14;25.40;87.60
2957;DHT22;1488;51.548;7.222;2023-06-22T00:05:41;25.50;87.70
2957;DHT22;1488;51.548;7.222;2023-06-22T00:08:08;25.40;87.60
2957;DHT22;1488;51.548;7.222;2023-06-22T00:10:35;25.40;87.60
2957;DHT22;1488;51.548;7.222;2023-06-22T00:13:01;25.40;87.60
2957;DHT22;1488;51.548;7.222;2023-06-22T00:15:28;25.50;87.70
2957;DHT22;1488;51.548;7.222;2023-06-22T00:17:55;25.40;87.60
2957;DHT22;1488;51.548;7.222;2023-06-22T00:20:26;25.40;87.60
2957;DHT22;1488;51.548;7.222;2023-06-22T00:22:54;25.50;87.70
2957;DHT22;1488;51.548;7.222;2023-06-22T00:25:21;25.50;87.60
2957;DHT22;1488;51.548;7.222;2023-06-22T00:27:49;25.40;87.60
2957;DHT22;1488;51.548;7.222;2023-06-22T00:30:16;25.40;87.50
2957;DHT22;1488;51.548;7.222;2023-06-22T00:32:43;25.40;87.50
2957;DHT22;1488;51.548;7.222;2023-06-22T00:35:10;25.50;87.60
2957;DHT22;1488;51.548;7.222;2023-06-22T00:37:39;25.40;87.60
2957;DHT22;1488;51.548;7.222;2023-06-22T00:40:08;25.40;87.60
2957;DHT22;1488;51.548;7.222;2023-06-22T00:42:37;25.40;87.60
2957;DHT22;1488;51.548;7.222;2023-06-22T00:45:05;25.40;87.50
2957;DHT22;1488;51.548;7.222;2023-06-22T00:47:34;25.40;87.50
2957;DHT22;1488;51.548;7.222;2023-06-22T00:50:01;25.50;87.60
2957;DHT22;1488;51.548;7.222;2023-06-22T00:52:29;25.40;87.50
2957;DHT22;1488;51.548;7.222;2023-06-22T00:55:01;25.40;87.50
2957;DHT22;1488;51.548;7.222;2023-06-22T00:57:28;25.40;87.60
2957;DHT22;1488;51.548;7.222;2023-06-22T00:59:55;25.40;87.60
2957;DHT22;1488;51.548;7.222;2023-06-22T01:02:22;25.40;87.60
2957;DHT22;1488;51.548;7.222;2023-06-22T01:04:49;25.40;87.60
2957;DHT22;1488;51.548;7.222;2023-06-22T01:07:23;25.40;88.40
2957;DHT22;1488;51.548;7.222;2023-06-22T01:09:57;25.40;87.60
2957;DHT22;1488;51.548;7.222;2023-06-22T01:12:30;25.40;87.60
2957;DHT22;1488;51.548;7.222;2023-06-22T01:15:02;25.40;87.60
2957;DHT22;1488;51.548;7.222;2023-06-22T01:17:31;25.40;87.60
2957;DHT22;1488;51.548;7.222;2023-06-22T01:19:59;25.40;87.60
2957;DHT22;1488;51.548;7.222;2023-06-22T01:22:33;25.40;87.60
2957;DHT22;1488;51.548;7.222;2023-06-22T01:25:09;25.40;87.60
2957;DHT22;1488;51.548;7.222;2023-06-22T01:27:46;25.40;87.60
2957;DHT22;1488;51.548;7.222;2023-06-22T01:30:17;25.40;87.60
2957;DHT22;1488;51.548;7.222;2023-06-22T01:32:46;25.40;87.60
2957;DHT22;1488;51.548;7.222;2023-06-22T01:35:15;25.40;87.60
2957;DHT22;1488;51.548;7.222;2023-06-22T01:37:42;25.40;87.60
2957;DHT22;1488;51.548;7.222;2023-06-22T01:40:09;25.40;87.60
2957;DHT22;1488;51.548;7.222;2023-06-22T01:42:37;25.40;87.60
2957;DHT22;1488;51.548;7.222;2023-06-22T01:45:05;25.40;87.50
2957;DHT22;1488;51.548;7.222;2023-06-22T01:47:35;25.40;87.60
2957;DHT22;1488;51.548;7.222;2023-06-22T01:50:02;25.40;87.60
2957;DHT22;1488;51.548;7.222;2023-06-22T01:52:29;25.40;87.60
2957;DHT22;1488;51.548;7.222;2023-06-22T01:54:55;25.40;87.60
2957;DHT22;1488;51.548;7.222;2023-06-22T01:57:23;25.40;87.60
2957;DHT22;1488;51.548;7.222;2023-06-22T01:59:59;25.40;87.60
2957;DHT22;1488;51.548;7.222;2023-06-22T02:02:32;25.40;87.60
2957;DHT22;1488;51.548;7.222;2023-06-22T02:05:05;25.40;87.60
2957;DHT22;1488;51.548;7.222;2023-06-22T02:07:36;25.40;87.60
2957;DHT22;1488;51.548;7.222;2023-06-22T02:10:07;25.40;87.60
2957;DHT22;1488;51.548;7.222;2023-06-22T02:12:38;25.40;87.60
2957;DHT22;1488;51.548;7.222;2023-06-22T02:15:07;25.40;87.60
2957;DHT22;1488;51.548;7.222;2023-06-22T02:17:34;25.40;87.60
2957;DHT22;1488;51.548;7.222;2023-06-22T02:20:03;25.40;87.60
2957;DHT22;1488;51.548;7.222;2023-06-22T02:22:33;25.40;87.60
2957;DHT22;1488;51.548;7.222;2023-06-22T02:25:00;25.40;87.60
2957;DHT22;1488;51.548;7.222;2023-06-22T02:27:27;25.40;87.60
2957;DHT22;1488;51.548;7.222;2023-06-22T02:29:54;25.40;87.60
2957;DHT22;1488;51.548;7.222;2023-06-22T02:32:21;25.40;87.60
2957;DHT22;1488;51.548;7.222;2023-06-22T02:34:48;25.40;87.60
2957;DHT22;1488;51.548;7.222;2023-06-22T02:37:16;25.40;87.60
2957;DHT22;1488;51.548;7.222;2023-06-22T02:39:43;25.40;87.70
2957;DHT22;1488;51.548;7.222;2023-06-22T02:42:10;25.40;87.60
2957;DHT22;1488;51.548;7.222;2023-06-22T02:44:37;25.40;87.60
2957;DHT22;1488;51.548;7.222;2023-06-22T02:47:04;25.40;87.60
2957;DHT22;1488;51.548;7.222;2023-06-22T02:49:31;25.40;87.60
2957;DHT22;1488;51.548;7.222;2023-06-22T02:51:58;25.40;87.60
2957;DHT22;1488;51.548;7.222;2023-06-22T02:54:26;25.40;87.70
2957;DHT22;1488;51.548;7.222;2023-06-22T02:56:53;25.40;87.60
2957;DHT22;1488;51.548;7.222;2023-06-22T02:59:20;25.40;88.50
2957;DHT22;1488;51.548;7.222;2023-06-22T03:01:49;25.40;87.70
2957;DHT22;1488;51.548;7.222;2023-06-22T03:04:16;25.40;87.70
2957;DHT22;1488;51.548;7.222;2023-06-22T03:06:42;25.40;87.70
2957;DHT22;1488;51.548;7.222;2023-06-22T03:09:09;25.40;88.10
2957;DHT22;1488;51.548;7.222;2023-06-22T03:11:37;25.40;87.80
2957;DHT22;1488;51.548;7.222;2023-06-22T03:14:04;25.40;87.70
2957;DHT22;1488;51.548;7.222;2023-06-22T03:16:31;25.40;87.70
2957;DHT22;1488;51.548;7.222;2023-06-22T03:18:59;25.40;87.60
2957;DHT22;1488;51.548;7.222;2023-06-22T03:21:27;25.40;87.60
2957;DHT22;1488;51.548;7.222;2023-06-22T03:23:54;25.40;87.60
2957;DHT22;1488;51.548;7.222;2023-06-22T03:26:21;25.40;87.60
2957;DHT22;1488;51.548;7.222;2023-06-22T03:28:53;25.40;87.60
2957;DHT22;1488;51.548;7.222;2023-06-22T03:31:20;25.40;87.70
2957;DHT22;1488;51.548;7.222;2023-06-22T03:33:47;25.40;87.60
2957;DHT22;1488;51.548;7.222;2023-06-22T03:36:14;25.40;87.90
2957;DHT22;1488;51.548;7.222;2023-06-22T03:38:44;25.40;87.90
2957;DHT22;1488;51.548;7.222;2023-06-22T03:41:11;25.40;87.80
2957;DHT22;1488;51.548;7.222;2023-06-22T03:43:38;25.40;87.90
2957;DHT22;1488;51.548;7.222;2023-06-22T03:46:06;25.40;87.80
2957;DHT22;1488;51.548;7.222;2023-06-22T03:48:33;25.40;87.90
2957;DHT22;1488;51.548;7.222;2023-06-22T03:51:00;25.40;87.90
2957;DHT22;1488;51.548;7.222;2023-06-22T03:53:28;25.40;87.90
2957;DHT22;1488;51.548;7.222;2023-06-22T03:55:55;25.40;88.70
2957;DHT22;1488;51.548;7.222;2023-06-22T03:58:22;25.40;88.70
2957;DHT22;1488;51.548;7.222;2023-06-22T04:00:50;25.40;87.90
2957;DHT22;1488;51.548;7.222;2023-06-22T04:03:19;25.40;88.10
2957;DHT22;1488;51.548;7.222;2023-06-22T04:05:46;25.40;88.10
2957;DHT22;1488;51.548;7.222;2023-06-22T04:08:13;25.40;88.10
2957;DHT22;1488;51.548;7.222;2023-06-22T04:10:40;25.40;88.10
2957;DHT22;1488;51.548;7.222;2023-06-22T04:13:07;25.40;88.20
2957;DHT22;1488;51.548;7.222;2023-06-22T04:15:34;25.40;88.10
2957;DHT22;1488;51.548;7.222;2023-06-22T04:18:01;25.40;88.10
2957;DHT22;1488;51.548;7.222;2023-06-22T04:20:30;25.40;88.10
2957;DHT22;1488;51.548;7.222;2023-06-22T04:22:57;25.40;88.20
2957;DHT22;1488;51.548;7.222;2023-06-22T04:25:24;25.40;88.20
2957;DHT22;1488;51.548;7.222;2023-06-22T04:27:51;25.40;88.10
2957;DHT22;1488;51.548;7.222;2023-06-22T04:30:18;25.40;88.20
2957;DHT22;1488;51.548;7.222;2023-06-22T04:32:45;25.40;88.10
2957;DHT22;1488;51.548;7.222;2023-06-22T04:35:21;25.40;88.10
2957;DHT22;1488;51.548;7.222;2023-06-22T04:37:50;25.40;88.20
2957;DHT22;1488;51.548;7.222;2023-06-22T04:40:21;25.40;88.20
2957;DHT22;1488;51.548;7.222;2023-06-22T04:42:48;25.40;88.30
2957;DHT22;1488;51.548;7.222;2023-06-22T04:45:18;25.40;88.20
2957;DHT22;1488;51.548;7.222;2023-06-22T04:47:45;25.40;88.30
2957;DHT22;1488;51.548;7.222;2023-06-22T04:50:12;25.40;88.20
2957;DHT22;1488;51.548;7.222;2023-06-22T04:52:39;25.40;88.20
2957;DHT22;1488;51.548;7.222;2023-06-22T04:55:08;25.40;88.30
2957;DHT22;1488;51.548;7.222;2023-06-22T04:57:35;25.40;88.30
2957;DHT22;1488;51.548;7.222;2023-06-22T05:00:05;25.40;88.30
2957;DHT22;1488;51.548;7.222;2023-06-22T05:02:38;25.40;88.30
2957;DHT22;1488;51.548;7.222;2023-06-22T05:05:05;25.40;88.40
2957;DHT22;1488;51.548;7.222;2023-06-22T05:07:33;25.40;88.40
2957;DHT22;1488;51.548;7.222;2023-06-22T05:10:00;25.40;88.40
2957;DHT22;1488;51.548;7.222;2023-06-22T05:12:30;25.40;88.30
2957;DHT22;1488;51.548;7.222;2023-06-22T05:14:57;25.40;88.20
2957;DHT22;1488;51.548;7.222;2023-06-22T05:17:24;25.40;88.30
2957;DHT22;1488;51.548;7.222;2023-06-22T05:19:51;25.40;88.30
2957;DHT22;1488;51.548;7.222;2023-06-22T05:22:18;25.40;88.20
2957;DHT22;1488;51.548;7.222;2023-06-22T05:24:45;25.40;88.30
2957;DHT22;1488;51.548;7.222;2023-06-22T05:27:12;25.40;88.40
2957;DHT22;1488;51.548;7.222;2023-06-22T05:29:40;25.40;88.40
2957;DHT22;1488;51.548;7.222;2023-06-22T05:32:08;25.40;88.30
2957;DHT22;1488;51.548;7.222;2023-06-22T05:34:35;25.30;88.20
2957;DHT22;1488;51.548;7.222;2023-06-22T05:37:02;25.40;88.30
2957;DHT22;1488;51.548;7.222;2023-06-22T05:39:29;25.40;88.30
2957;DHT22;1488;51.548;7.222;2023-06-22T05:41:56;25.30;88.10
2957;DHT22;1488;51.548;7.222;2023-06-22T05:44:23;25.40;88.50
2957;DHT22;1488;51.548;7.222;2023-06-22T05:46:51;25.40;88.50
2957;DHT22;1488;51.548;7.222;2023-06-22T05:49:18;25.40;88.50
2957;DHT22;1488;51.548;7.222;2023-06-22T05:51:44;25.40;88.40
2957;DHT22;1488;51.548;7.222;2023-06-22T05:54:11;25.40;88.50
2957;DHT22;1488;51.548;7.222;2023-06-22T05:56:41;25.40;88.50
2957;DHT22;1488;51.548;7.222;2023-06-22T05:59:08;25.30;88.50
2957;DHT22;1488;51.548;7.222;2023-06-22T06:01:34;25.30;89.50
2957;DHT22;1488;51.548;7.222;2023-06-22T06:04:03;25.40;88.50
2957;DHT22;1488;51.548;7.222;2023-06-22T06:06:30;25.40;88.60
2957;DHT22;1488;51.548;7.222;2023-06-22T06:08:57;25.30;88.60
2957;DHT22;1488;51.548;7.222;2023-06-22T06:11:25;25.40;88.60
2957;DHT22;1488;51.548;7.222;2023-06-22T06:13:52;25.40;88.80
2957;DHT22;1488;51.548;7.222;2023-06-22T06:16:19;25.40;88.70
2957;DHT22;1488;51.548;7.222;2023-06-22T06:18:46;25.40;88.60
2957;DHT22;1488;51.548;7.222;2023-06-22T06:21:15;25.30;88.50
2957;DHT22;1488;51.548;7.222;2023-06-22T06:23:42;25.40;88.60
2957;DHT22;1488;51.548;7.222;2023-06-22T06:26:09;25.40;88.60
2957;DHT22;1488;51.548;7.222;2023-06-22T06:28:36;25.30;88.60
2957;DHT22;1488;51.548;7.222;2023-06-22T06:31:03;25.30;88.40
2957;DHT22;1488;51.548;7.222;2023-06-22T06:33:32;25.40;88.70
2957;DHT22;1488;51.548;7.222;2023-06-22T06:35:59;25.40;88.60
2957;DHT22;1488;51.548;7.222;2023-06-22T06:38:30;25.30;88.50
2957;DHT22;1488;51.548;7.222;2023-06-22T06:40:57;25.40;88.60
2957;DHT22;1488;51.548;7.222;2023-06-22T06:43:24;25.40;88.50
2957;DHT22;1488;51.548;7.222;2023-06-22T06:45:51;25.40;88.50
2957;DHT22;1488;51.548;7.222;2023-06-22T06:48:18;25.40;88.50
2957;DHT22;1488;51.548;7.222;2023-06-22T06:50:45;25.30;88.30
2957;DHT22;1488;51.548;7.222;2023-06-22T06:53:11;25.40;88.40
2957;DHT22;1488;51.548;7.222;2023-06-22T06:55:40;25.40;88.30
2957;DHT22;1488;51.548;7.222;2023-06-22T06:58:06;25.30;88.40
2957;DHT22;1488;51.548;7.222;2023-06-22T07:00:35;25.30;88.30
2957;DHT22;1488;51.548;7.222;2023-06-22T07:03:02;25.30;88.20
2957;DHT22;1488;51.548;7.222;2023-06-22T07:05:29;25.30;88.00
2957;DHT22;1488;51.548;7.222;2023-06-22T07:07:56;25.40;88.20
2957;DHT22;1488;51.548;7.222;2023-06-22T07:10:23;25.40;88.10
2957;DHT22;1488;51.548;7.222;2023-06-22T07:12:51;25.30;88.20
2957;DHT22;1488;51.548;7.222;2023-06-22T07:15:18;25.30;88.20
2957;DHT22;1488;51.548;7.222;2023-06-22T07:17:45;25.40;88.30
2957;DHT22;1488;51.548;7.222;2023-06-22T07:20:12;25.40;88.30
2957;DHT22;1488;51.548;7.222;2023-06-22T07:22:40;25.40;88.20
2957;DHT22;1488;51.548;7.222;2023-06-22T07:25:08;25.30;88.20
2957;DHT22;1488;51.548;7.222;2023-06-22T07:27:36;25.40;88.20
2957;DHT22;1488;51.548;7.222;2023-06-22T07:30:06;25.40;88.90
2957;DHT22;1488;51.548;7.222;2023-06-22T07:32:33;25.30;88.00
2957;DHT22;1488;51.548;7.222;2023-06-22T07:35:00;25.30;88.00
2957;DHT22;1488;51.548;7.222;2023-06-22T07:37:28;25.30;87.90
2957;DHT22;1488;51.548;7.222;2023-06-22T07:39:55;25.40;87.90
2957;DHT22;1488;51.548;7.222;2023-06-22T07:42:24;25.40;87.90
2957;DHT22;1488;51.548;7.222;2023-06-22T07:44:51;25.30;87.70
2957;DHT22;1488;51.548;7.222;2023-06-22T07:47:19;25.30;87.70
2957;DHT22;1488;51.548;7.222;2023-06-22T07:49:50;25.30;87.80
2957;DHT22;1488;51.548;7.222;2023-06-22T07:52:17;25.30;87.70
2957;DHT22;1488;51.548;7.222;2023-06-22T07:54:44;25.40;88.60
2957;DHT22;1488;51.548;7.222;2023-06-22T07:57:11;25.30;87.60
2957;DHT22;1488;51.548;7.222;2023-06-22T07:59:37;25.30;87.60
2957;DHT22;1488;51.548;7.222;2023-06-22T08:02:05;25.30;87.60
2957;DHT22;1488;51.548;7.222;2023-06-22T08:04:35;25.30;87.60
2957;DHT22;1488;51.548;7.222;2023-06-22T08:07:03;25.40;87.70
2957;DHT22;1488;51.548;7.222;2023-06-22T08:09:31;25.40;87.60
2957;DHT22;1488;51.548;7.222;2023-06-22T08:11:59;25.40;87.60
2957;DHT22;1488;51.548;7.222;2023-06-22T08:14:26;25.40;87.70
2957;DHT22;1488;51.548;7.222;2023-06-22T08:16:53;25.40;87.60
2957;DHT22;1488;51.548;7.222;2023-06-22T08:19:20;25.30;87.60
2957;DHT22;1488;51.548;7.222;2023-06-22T08:21:48;25.30;87.40
2957;DHT22;1488;51.548;7.222;2023-06-22T08:24:15;25.40;87.60
2957;DHT22;1488;51.548;7.222;2023-06-22T08:26:42;25.30;87.60
2957;DHT22;1488;51.548;7.222;2023-06-22T08:29:09;25.40;87.70
2957;DHT22;1488;51.548;7.222;2023-06-22T08:31:36;25.30;87.60
2957;DHT22;1488;51.548;7.222;2023-06-22T08:34:03;25.30;87.50
2957;DHT22;1488;51.548;7.222;2023-06-22T08:36:30;25.30;87.50
2957;DHT22;1488;51.548;7.222;2023-06-22T08:38:59;25.30;87.50
2957;DHT22;1488;51.548;7.222;2023-06-22T08:41:28;25.40;87.60
2957;DHT22;1488;51.548;7.222;2023-06-22T08:43:55;25.40;87.40
2957;DHT22;1488;51.548;7.222;2023-06-22T08:46:23;25.40;87.60
2957;DHT22;1488;51.548;7.222;2023-06-22T08:48:55;25.40;88.30
2957;DHT22;1488;51.548;7.222;2023-06-22T08:51:22;25.40;87.70
2957;DHT22;1488;51.548;7.222;2023-06-22T08:53:49;25.40;87.60
2957;DHT22;1488;51.548;7.222;2023-06-22T08:56:17;25.40;87.70
2957;DHT22;1488;51.548;7.222;2023-06-22T08:58:44;25.40;87.60
2957;DHT22;1488;51.548;7.222;2023-06-22T09:01:11;25.30;87.50
2957;DHT22;1488;51.548;7.222;2023-06-22T09:03:38;25.40;87.60
2957;DHT22;1488;51.548;7.222;2023-06-22T09:06:05;25.40;87.60
2957;DHT22;1488;51.548;7.222;2023-06-22T09:08:32;25.40;87.60
2957;DHT22;1488;51.548;7.222;2023-06-22T09:10:59;25.40;87.50
2957;DHT22;1488;51.548;7.222;2023-06-22T09:13:30;25.40;87.60
2957;DHT22;1488;51.548;7.222;2023-06-22T09:15:57;25.40;87.50
2957;DHT22;1488;51.548;7.222;2023-06-22T09:18:24;25.40;87.80
2957;DHT22;1488;51.548;7.222;2023-06-22T09:20:51;25.40;87.60
2957;DHT22;1488;51.548;7.222;2023-06-22T09:23:18;25.40;87.60
2957;DHT22;1488;51.548;7.222;2023-06-22T09:25:45;25.40;87.70
2957;DHT22;1488;51.548;7.222;2023-06-22T09:28:13;25.40;87.70
2957;DHT22;1488;51.548;7.222;2023-06-22T09:30:43;25.40;87.60
2957;DHT22;1488;51.548;7.222;2023-06-22T09:33:10;25.40;87.60
2957;DHT22;1488;51.548;7.222;2023-06-22T09:35:37;25.40;87.60
2957;DHT22;1488;51.548;7.222;2023-06-22T09:38:04;25.40;87.60
2957;DHT22;1488;51.548;7.222;2023-06-22T09:40:31;25.40;87.70
2957;DHT22;1488;51.548;7.222;2023-06-22T09:43:01;25.40;87.70
2957;DHT22;1488;51.548;7.222;2023-06-22T09:45:27;25.40;87.60
2957;DHT22;1488;51.548;7.222;2023-06-22T09:47:56;25.40;87.60
2957;DHT22;1488;51.548;7.222;2023-06-22T09:50:22;25.40;87.60
2957;DHT22;1488;51.548;7.222;2023-06-22T09:52:49;25.40;87.70
2957;DHT22;1488;51.548;7.222;2023-06-22T09:55:20;25.40;87.70
2957;DHT22;1488;51.548;7.222;2023-06-22T09:57:47;25.40;87.60
2957;DHT22;1488;51.548;7.222;2023-06-22T10:00:15;25.40;87.60
2957;DHT22;1488;51.548;7.222;2023-06-22T10:02:42;25.40;87.60
2957;DHT22;1488;51.548;7.222;2023-06-22T10:05:10;25.40;87.70
2957;DHT22;1488;51.548;7.222;2023-06-22T10:07:37;25.40;87.80
2957;DHT22;1488;51.548;7.222;2023-06-22T10:10:08;25.40;87.90
2957;DHT22;1488;51.548;7.222;2023-06-22T10:12:35;25.40;87.90
2957;DHT22;1488;51.548;7.222;2023-06-22T10:15:03;25.40;87.80
2957;DHT22;1488;51.548;7.222;2023-06-22T10:17:30;25.40;87.80
2957;DHT22;1488;51.548;7.222;2023-06-22T10:19:57;25.40;87.90
2957;DHT22;1488;51.548;7.222;2023-06-22T10:22:25;25.40;87.90
2957;DHT22;1488;51.548;7.222;2023-06-22T10:24:52;25.40;87.90
2957;DHT22;1488;51.548;7.222;2023-06-22T10:27:18;25.40;87.90
2957;DHT22;1488;51.548;7.222;2023-06-22T10:29:46;25.40;87.90
2957;DHT22;1488;51.548;7.222;2023-06-22T10:32:12;25.40;88.00
2957;DHT22;1488;51.548;7.222;2023-06-22T10:34:39;25.40;88.00
2957;DHT22;1488;51.548;7.222;2023-06-22T10:37:06;25.40;88.00
2957;DHT22;1488;51.548;7.222;2023-06-22T10:39:34;25.40;88.00
2957;DHT22;1488;51.548;7.222;2023-06-22T10:42:01;25.40;88.00
2957;DHT22;1488;51.548;7.222;2023-06-22T10:44:28;25.40;88.90
2957;DHT22;1488;51.548;7.222;2023-06-22T10:46:55;25.40;88.00
2957;DHT22;1488;51.548;7.222;2023-06-22T10:49:22;25.40;88.20
2957;DHT22;1488;51.548;7.222;2023-06-22T10:51:49;25.40;88.20
2957;DHT22;1488;51.548;7.222;2023-06-22T10:54:16;25.40;88.20
2957;DHT22;1488;51.548;7.222;2023-06-22T10:56:45;25.40;88.20
2957;DHT22;1488;51.548;7.222;2023-06-22T10:59:12;25.40;88.20
2957;DHT22;1488;51.548;7.222;2023-06-22T11:01:38;25.40;88.20
2957;DHT22;1488;51.548;7.222;2023-06-22T11:04:05;25.40;88.30
2957;DHT22;1488;51.548;7.222;2023-06-22T11:06:32;25.40;88.30
2957;DHT22;1488;51.548;7.222;2023-06-22T11:08:59;25.40;88.30
2957;DHT22;1488;51.548;7.222;2023-06-22T11:11:26;25.40;88.20
2957;DHT22;1488;51.548;7.222;2023-06-22T11:13:54;25.40;88.40
2957;DHT22;1488;51.548;7.222;2023-06-22T11:16:22;25.40;88.40
2957;DHT22;1488;51.548;7.222;2023-06-22T11:18:49;25.40;88.30
2957;DHT22;1488;51.548;7.222;2023-06-22T11:21:16;25.40;88.30
2957;DHT22;1488;51.548;7.222;2023-06-22T11:23:43;25.40;88.40
2957;DHT22;1488;51.548;7.222;2023-06-22T11:26:09;25.40;88.50
2957;DHT22;1488;51.548;7.222;2023-06-22T11:28:36;25.40;88.40
2957;DHT22;1488;51.548;7.222;2023-06-22T11:31:04;25.40;88.50
2957;DHT22;1488;51.548;7.222;2023-06-22T11:33:32;25.40;88.50
2957;DHT22;1488;51.548;7.222;2023-06-22T11:35:59;25.40;88.40
2957;DHT22;1488;51.548;7.222;2023-06-22T11:38:26;25.40;88.40
2957;DHT22;1488;51.548;7.222;2023-06-22T11:40:53;25.40;88.50
2957;DHT22;1488;51.548;7.222;2023-06-22T11:43:20;25.40;88.60
2957;DHT22;1488;51.548;7.222;2023-06-22T11:45:47;25.40;88.50
2957;DHT22;1488;51.548;7.222;2023-06-22T11:48:15;25.40;88.50
2957;DHT22;1488;51.548;7.222;2023-06-22T11:50:42;25.40;88.40
2957;DHT22;1488;51.548;7.222;2023-06-22T11:53:09;25.40;88.30
2957;DHT22;1488;51.548;7.222;2023-06-22T11:55:36;25.40;88.40
2957;DHT22;1488;51.548;7.222;2023-06-22T11:58:02;25.40;88.50
2957;DHT22;1488;51.548;7.222;2023-06-22T12:00:31;25.40;88.50
2957;DHT22;1488;51.548;7.222;2023-06-22T12:02:58;25.40;88.40
2957;DHT22;1488;51.548;7.222;2023-06-22T12:05:26;25.40;88.40
2957;DHT22;1488;51.548;7.222;2023-06-22T12:07:53;25.50;88.50
2957;DHT22;1488;51.548;7.222;2023-06-22T12:10:21;25.40;88.30
2957;DHT22;1488;51.548;7.222;2023-06-22T12:12:47;25.40;88.30
2957;DHT22;1488;51.548;7.222;2023-06-22T12:15:14;25.40;89.20
2957;DHT22;1488;51.548;7.222;2023-06-22T12:17:41;25.40;88.30
2957;DHT22;1488;51.548;7.222;2023-06-22T12:20:09;25.40;88.40
2957;DHT22;1488;51.548;7.222;2023-06-22T12:22:37;25.40;88.50
2957;DHT22;1488;51.548;7.222;2023-06-22T12:25:05;25.40;88.30
2957;DHT22;1488;51.548;7.222;2023-06-22T12:27:32;25.40;88.30
2957;DHT22;1488;51.548;7.222;2023-06-22T12:29:58;25.40;88.30
2957;DHT22;1488;51.548;7.222;2023-06-22T12:32:25;25.40;88.40
2957;DHT22;1488;51.548;7.222;2023-06-22T12:34:52;25.40;88.30
2957;DHT22;1488;51.548;7.222;2023-06-22T12:37:19;25.40;88.30
2957;DHT22;1488;51.548;7.222;2023-06-22T12:39:47;25.40;88.30
2957;DHT22;1488;51.548;7.222;2023-06-22T12:42:15;25.40;88.30
2957;DHT22;1488;51.548;7.222;2023-06-22T12:44:43;25.40;88.30
2957;DHT22;1488;51.548;7.222;2023-06-22T12:47:17;25.40;88.40
2957;DHT22;1488;51.548;7.222;2023-06-22T12:49:45;25.40;88.40
2957;DHT22;1488;51.548;7.222;2023-06-22T12:52:12;25.40;88.40
2957;DHT22;1488;51.548;7.222;2023-06-22T12:54:39;25.40;88.40
2957;DHT22;1488;51.548;7.222;2023-06-22T12:57:07;25.40;88.50
2957;DHT22;1488;51.548;7.222;2023-06-22T12:59:34;25.40;88.30
2957;DHT22;1488;51.548;7.222;2023-06-22T13:02:01;25.40;88.40
2957;DHT22;1488;51.548;7.222;2023-06-22T13:04:28;25.40;88.50
2957;DHT22;1488;51.548;7.222;2023-06-22T13:06:55;25.40;88.30
2957;DHT22;1488;51.548;7.222;2023-06-22T13:09:22;25.40;88.30
2957;DHT22;1488;51.548;7.222;2023-06-22T13:11:49;25.40;88.40
2957;DHT22;1488;51.548;7.222;2023-06-22T13:14:17;25.40;88.40
2957;DHT22;1488;51.548;7.222;2023-06-22T13:16:44;25.40;88.40
2957;DHT22;1488;51.548;7.222;2023-06-22T13:19:10;25.40;88.50
2957;DHT22;1488;51.548;7.222;2023-06-22T13:21:37;25.40;88.40
2957;DHT22;1488;51.548;7.222;2023-06-22T13:24:05;25.40;88.40
2957;DHT22;1488;51.548;7.222;2023-06-22T13:26:32;25.40;89.20
2957;DHT22;1488;51.548;7.222;2023-06-22T13:28:59;25.40;89.10
2957;DHT22;1488;51.548;7.222;2023-06-22T13:31:27;25.40;89.10
2957;DHT22;1488;51.548;7.222;2023-06-22T13:33:54;25.40;88.40
2957;DHT22;1488;51.548;7.222;2023-06-22T13:36:21;25.40;88.30
2957;DHT22;1488;51.548;7.222;2023-06-22T13:38:48;25.40;88.30
2957;DHT22;1488;51.548;7.222;2023-06-22T13:41:15;25.40;88.40
2957;DHT22;1488;51.548;7.222;2023-06-22T13:43:42;25.40;88.40
2957;DHT22;1488;51.548;7.222;2023-06-22T13:46:09;25.40;88.30
2957;DHT22;1488;51.548;7.222;2023-06-22T13:48:37;25.40;88.30
2957;DHT22;1488;51.548;7.222;2023-06-22T13:51:04;25.40;88.40
2957;DHT22;1488;51.548;7.222;2023-06-22T13:53:31;25.40;88.40
2957;DHT22;1488;51.548;7.222;2023-06-22T13:55:58;25.40;88.40
2957;DHT22;1488;51.548;7.222;2023-06-22T13:58:25;25.40;88.30
2957;DHT22;1488;51.548;7.222;2023-06-22T14:00:52;25.40;88.30
2957;DHT22;1488;51.548;7.222;2023-06-22T14:03:19;25.40;88.30
2957;DHT22;1488;51.548;7.222;2023-06-22T14:05:47;25.40;88.30
2957;DHT22;1488;51.548;7.222;2023-06-22T14:08:14;25.40;88.40
2957;DHT22;1488;51.548;7.222;2023-06-22T14:10:41;25.40;88.40
2957;DHT22;1488;51.548;7.222;2023-06-22T14:13:08;25.40;88.40
2957;DHT22;1488;51.548;7.222;2023-06-22T14:15:34;25.40;88.50
2957;DHT22;1488;51.548;7.222;2023-06-22T14:18:01;25.40;88.50
2957;DHT22;1488;51.548;7.222;2023-06-22T14:20:28;25.40;88.50
2957;DHT22;1488;51.548;7.222;2023-06-22T14:22:56;25.40;88.50
2957;DHT22;1488;51.548;7.222;2023-06-22T14:25:23;25.40;88.50
2957;DHT22;1488;51.548;7.222;2023-06-22T14:27:50;25.40;88.40
2957;DHT22;1488;51.548;7.222;2023-06-22T14:30:17;25.40;88.50
2957;DHT22;1488;51.548;7.222;2023-06-22T14:32:44;25.40;88.50
2957;DHT22;1488;51.548;7.222;2023-06-22T14:35:11;25.40;88.60
2957;DHT22;1488;51.548;7.222;2023-06-22T14:37:38;25.40;88.60
2957;DHT22;1488;51.548;7.222;2023-06-22T14:40:07;25.40;88.60
2957;DHT22;1488;51.548;7.222;2023-06-22T14:42:34;25.40;88.50
2957;DHT22;1488;51.548;7.222;2023-06-22T14:45:01;25.40;88.50
2957;DHT22;1488;51.548;7.222;2023-06-22T14:47:28;25.40;88.50
2957;DHT22;1488;51.548;7.222;2023-06-22T14:49:55;25.40;88.50
2957;DHT22;1488;51.548;7.222;2023-06-22T14:52:21;25.40;88.40
2957;DHT22;1488;51.548;7.222;2023-06-22T14:54:48;25.40;89.30
2957;DHT22;1488;51.548;7.222;2023-06-22T14:57:19;25.40;88.30
2957;DHT22;1488;51.548;7.222;2023-06-22T14:59:48;25.40;88.60
2957;DHT22;1488;51.548;7.222;2023-06-22T15:02:16;25.40;88.70
2957;DHT22;1488;51.548;7.222;2023-06-22T15:04:43;25.40;88.70
2957;DHT22;1488;51.548;7.222;2023-06-22T15:07:10;25.40;88.50
2957;DHT22;1488;51.548;7.222;2023-06-22T15:09:37;25.40;88.50
2957;DHT22;1488;51.548;7.222;2023-06-22T15:12:08;25.40;88.50
2957;DHT22;1488;51.548;7.222;2023-06-22T15:14:39;25.40;88.50
2957;DHT22;1488;51.548;7.222;2023-06-22T15:17:06;25.40;88.50
2957;DHT22;1488;51.548;7.222;2023-06-22T15:19:34;25.40;88.50
2957;DHT22;1488;51.548;7.222;2023-06-22T15:22:02;25.40;88.50
2957;DHT22;1488;51.548;7.222;2023-06-22T15:24:29;25.40;88.50
2957;DHT22;1488;51.548;7.222;2023-06-22T15:26:56;25.40;88.60
2957;DHT22;1488;51.548;7.222;2023-06-22T15:29:23;25.40;88.60
2957;DHT22;1488;51.548;7.222;2023-06-22T15:31:51;25.40;88.60
2957;DHT22;1488;51.548;7.222;2023-06-22T15:34:18;25.40;88.60
2957;DHT22;1488;51.548;7.222;2023-06-22T15:36:45;25.40;88.60
2957;DHT22;1488;51.548;7.222;2023-06-22T15:39:12;25.40;88.60
2957;DHT22;1488;51.548;7.222;2023-06-22T15:41:40;25.40;88.60
2957;DHT22;1488;51.548;7.222;2023-06-22T15:44:08;25.40;88.60
2957;DHT22;1488;51.548;7.222;2023-06-22T15:46:35;25.40;88.60
2957;DHT22;1488;51.548;7.222;2023-06-22T15:49:03;25.40;88.70
2957;DHT22;1488;51.548;7.222;2023-06-22T15:51:31;25.40;88.60
2957;DHT22;1488;51.548;7.222;2023-06-22T15:53:58;25.40;88.50
2957;DHT22;1488;51.548;7.222;2023-06-22T15:56:25;25.40;88.60
2957;DHT22;1488;51.548;7.222;2023-06-22T15:58:52;25.40;88.60
2957;DHT22;1488;51.548;7.222;2023-06-22T16:01:19;25.40;88.60
2957;DHT22;1488;51.548;7.222;2023-06-22T16:03:46;25.40;88.50